Time;durP1;ratioP1;P1;durP2;ratioP2;P2;SDS_P1;SDS_P2;PMS_P1;PMS_P2;Temp;Humidity;BMP_temperature;BMP_pressure;BME280_temperature;BME280_humidity;BME280_pressure;Samples;Min_cycle;Max_cycle;Signal;HPM_P1;HPM_P2
2022/10/25 00:00:49;;;;;;;47.10;43.60;;;;;;;8.55;100.00;101404.22;6181555;23;20106;-89
2022/10/25 00:03:16;;;;;;;45.35;41.92;;;;;;;8.66;100.00;101419.69;6185986;23;20017;-92
2022/10/25 00:05:43;;;;;;;46.80;43.47;;;;;;;8.63;100.00;101413.94;6185853;23;20125;-89
2022/10/25 00:08:10;;;;;;;45.83;42.03;;;;;;;8.66;100.00;101409.09;6185978;23;20363;-90
2022/10/25 00:10:38;;;;;;;44.78;41.63;;;;;;;8.71;100.00;101403.25;6186222;23;20407;-89
2022/10/25 00:13:06;;;;;;;50.47;46.28;;;;;;;8.53;100.00;101392.97;6186339;23;20025;-89
2022/10/25 00:15:32;;;;;;;47.30;43.65;;;;;;;8.60;100.00;101393.09;6186085;23;20025;-90
2022/10/25 00:17:59;;;;;;;47.97;44.33;;;;;;;8.52;100.00;101396.63;6186431;23;20521;-89
2022/10/25 00:20:29;;;;;;;44.97;41.97;;;;;;;8.68;100.00;101398.31;6186550;23;20021;-90
2022/10/25 00:22:56;;;;;;;45.05;41.78;;;;;;;8.49;100.00;101402.25;6185631;23;20411;-90
2022/10/25 00:25:23;;;;;;;43.65;40.55;;;;;;;8.56;100.00;101378.56;6185826;23;20021;-90
2022/10/25 00:27:51;;;;;;;48.80;44.95;;;;;;;8.36;100.00;101386.94;6185848;23;20017;-90
2022/10/25 00:30:19;;;;;;;49.85;46.25;;;;;;;8.45;100.00;101393.03;6186029;23;20021;-90
2022/10/25 00:32:45;;;;;;;49.05;45.08;;;;;;;8.44;100.00;101392.22;6186201;23;20021;-89
2022/10/25 00:35:12;;;;;;;46.83;43.20;;;;;;;8.48;100.00;101392.69;6185511;23;20379;-89
2022/10/25 00:37:39;;;;;;;49.50;46.03;;;;;;;8.49;100.00;101379.25;6185675;23;20499;-89
2022/10/25 00:40:07;;;;;;;49.88;46.33;;;;;;;8.18;100.00;101379.25;6186849;23;20023;-89
2022/10/25 00:42:34;;;;;;;50.75;46.72;;;;;;;8.33;100.00;101379.34;6185838;23;20075;-90
2022/10/25 00:45:21;;;;;;;49.38;45.67;;;;;;;8.33;100.00;101379.34;6185890;23;20024;-89
2022/10/25 00:47:52;;;;;;;49.65;46.15;;;;;;;8.03;100.00;101373.88;6185324;23;20024;-90
2022/10/25 00:50:29;;;;;;;51.05;47.40;;;;;;;8.27;100.00;101388.81;6185480;23;20366;-89
2022/10/25 00:53:00;;;;;;;53.78;49.65;;;;;;;8.18;100.00;101362.56;6185860;23;20020;-90
2022/10/25 00:55:28;;;;;;;49.88;46.55;;;;;;;7.86;100.00;101374.13;6185629;23;20021;-89
2022/10/25 00:57:58;;;;;;;53.13;49.17;;;;;;;7.85;100.00;101375.94;6184446;23;20024;-89
2022/10/25 01:00:26;;;;;;;53.80;49.20;;;;;;;7.77;100.00;101374.16;6186246;23;20021;-90
2022/10/25 01:02:53;;;;;;;53.03;48.53;;;;;;;8.01;100.00;101377.69;6185841;23;20091;-90
2022/10/25 01:05:21;;;;;;;50.35;46.65;;;;;;;7.90;100.00;101356.94;6185212;23;20023;-90
2022/10/25 01:07:48;;;;;;;54.75;49.97;;;;;;;8.02;100.00;101364.31;6185622;23;20021;-90
2022/10/25 01:10:15;;;;;;;51.30;47.13;;;;;;;8.11;100.00;101369.53;6186037;23;20025;-90
2022/10/25 01:12:42;;;;;;;47.38;43.47;;;;;;;7.82;100.00;101367.53;6185422;23;20021;-90
2022/10/25 01:15:10;;;;;;;46.67;43.13;;;;;;;7.78;100.00;101373.16;6184922;23;20028;-89
2022/10/25 01:17:51;;;;;;;48.60;45.00;;;;;;;7.81;100.00;101379.94;6185744;23;20025;-90
2022/10/25 01:20:40;;;;;;;51.42;47.85;;;;;;;7.75;100.00;101367.41;6185461;23;20107;-90
2022/10/25 01:23:20;;;;;;;54.40;50.55;;;;;;;7.93;100.00;101362.69;6185561;23;20025;-90
2022/10/25 01:26:09;;;;;;;47.20;43.80;;;;;;;7.96;100.00;101346.47;6185020;23;20075;-90
2022/10/25 01:28:51;;;;;;;48.30;44.70;;;;;;;8.02;100.00;101351.06;6185141;23;20025;-89
2022/10/25 01:31:27;;;;;;;51.40;47.70;;;;;;;8.16;100.00;101330.16;6185657;23;20028;-90
2022/10/25 01:33:58;;;;;;;60.83;56.90;;;;;;;8.20;100.00;101327.00;6185554;23;20021;-90
2022/10/25 01:36:34;;;;;;;58.75;54.78;;;;;;;8.23;100.00;101334.59;6183933;23;20023;-92
2022/10/25 01:39:09;;;;;;;54.55;50.85;;;;;;;8.11;100.00;101330.69;6184634;23;20018;-91
2022/10/25 01:41:44;;;;;;;57.90;53.80;;;;;;;8.31;100.00;101324.94;6185243;23;20056;-90
2022/10/25 01:44:27;;;;;;;56.42;52.70;;;;;;;8.05;100.00;101326.09;6184157;23;20028;-92
2022/10/25 01:47:01;;;;;;;48.72;45.28;;;;;;;7.65;100.00;101321.81;6183802;23;20027;-92
2022/10/25 01:49:37;;;;;;;61.03;57.08;;;;;;;7.93;100.00;101320.38;6184064;23;20017;-92
2022/10/25 01:52:04;;;;;;;54.35;50.75;;;;;;;8.03;100.00;101328.91;6184915;23;20112;-93
2022/10/25 01:54:31;;;;;;;54.88;51.08;;;;;;;8.17;100.00;101329.13;6186309;23;20483;-92
2022/10/25 01:57:15;;;;;;;51.05;47.72;;;;;;;8.11;100.00;101324.53;6186960;23;20471;-91
2022/10/25 01:59:59;;;;;;;57.35;53.60;;;;;;;8.10;100.00;101307.84;6186423;23;20017;-92
2022/10/25 02:02:35;;;;;;;51.58;47.83;;;;;;;8.08;100.00;101323.09;6179916;23;20029;-83
2022/10/25 02:05:10;;;;;;;62.10;57.97;;;;;;;8.24;100.00;101323.00;6188408;23;20087;-80
2022/10/25 02:07:42;;;;;;;65.05;60.55;;;;;;;8.23;100.00;101326.66;6188884;23;20115;-79
2022/10/25 02:10:16;;;;;;;60.65;56.17;;;;;;;8.15;100.00;101329.34;6189472;23;20032;-80
2022/10/25 02:12:55;;;;;;;56.80;52.72;;;;;;;8.16;100.00;101330.16;6189761;23;20024;-82
2022/10/25 02:15:27;;;;;;;66.60;62.22;;;;;;;7.99;100.00;101329.44;6188316;23;20025;-81
2022/10/25 02:17:59;;;;;;;52.38;48.53;;;;;;;7.77;100.00;101323.91;6188946;23;20029;-79
2022/10/25 02:20:32;;;;;;;63.50;59.22;;;;;;;8.06;100.00;101318.97;6188337;23;20438;-80
2022/10/25 02:23:03;;;;;;;61.05;56.88;;;;;;;8.27;100.00;101314.69;6188649;23;20421;-79
2022/10/25 02:25:39;;;;;;;50.42;46.42;;;;;;;8.33;100.00;101320.28;6188229;23;20017;-79
2022/10/25 02:28:11;;;;;;;45.38;41.75;;;;;;;8.27;100.00;101324.47;6187816;23;20446;-82
2022/10/25 02:30:43;;;;;;;43.47;40.20;;;;;;;8.15;100.00;101316.09;6186800;23;20064;-79
2022/10/25 02:33:12;;;;;;;43.15;40.15;;;;;;;8.04;100.00;101316.50;6187078;23;20509;-84
2022/10/25 02:35:40;;;;;;;44.65;41.17;;;;;;;8.06;100.00;101309.22;6187667;23;20075;-79
2022/10/25 02:38:08;;;;;;;45.35;41.78;;;;;;;7.85;100.00;101315.13;6188336;23;20465;-83
2022/10/25 02:40:36;;;;;;;46.03;42.63;;;;;;;7.91;100.00;101319.72;6186482;23;20079;-82
2022/10/25 02:43:03;;;;;;;46.97;43.03;;;;;;;7.96;100.00;101317.38;6187927;23;20095;-84
2022/10/25 02:45:31;;;;;;;46.90;43.22;;;;;;;8.12;100.00;101321.75;6187056;23;20083;-81
2022/10/25 02:47:58;;;;;;;44.92;41.53;;;;;;;8.18;100.00;101314.94;6188510;23;20025;-81
2022/10/25 02:50:26;;;;;;;45.47;41.88;;;;;;;7.92;100.00;101313.41;6187944;23;20025;-84
2022/10/25 02:52:55;;;;;;;47.03;43.67;;;;;;;7.92;100.00;101316.06;6187776;23;20021;-79
2022/10/25 02:55:22;;;;;;;46.33;42.80;;;;;;;7.97;100.00;101307.63;6187277;23;20040;-82
2022/10/25 02:57:50;;;;;;;43.17;39.92;;;;;;;7.76;100.00;101310.88;6187228;23;20033;-81
2022/10/25 03:00:21;;;;;;;46.63;43.33;;;;;;;7.58;100.00;101317.22;6188246;23;20021;-85
2022/10/25 03:02:49;;;;;;;46.47;42.97;;;;;;;7.70;100.00;101319.50;6186950;23;20024;-79
2022/10/25 03:05:18;;;;;;;45.85;42.35;;;;;;;7.78;100.00;101325.56;6186365;23;20091;-84
2022/10/25 03:07:47;;;;;;;50.15;46.78;;;;;;;7.77;100.00;101321.25;6187255;23;20320;-79
2022/10/25 03:10:24;;;;;;;45.78;42.58;;;;;;;7.69;100.00;101315.22;6187687;23;20021;-81
2022/10/25 03:12:51;;;;;;;45.35;41.78;;;;;;;7.61;100.00;101312.59;6187095;23;20080;-79
2022/10/25 03:15:27;;;;;;;40.85;37.83;;;;;;;7.02;100.00;101318.19;6188338;23;20029;-79
2022/10/25 03:17:53;;;;;;;51.08;47.58;;;;;;;7.44;100.00;101317.91;6187984;23;20433;-79
2022/10/25 03:20:22;;;;;;;50.13;46.42;;;;;;;7.54;100.00;101315.09;6188450;23;20394;-83
2022/10/25 03:22:52;;;;;;;56.05;52.28;;;;;;;7.11;100.00;101310.09;6186855;23;20025;-79
2022/10/25 03:25:19;;;;;;;51.83;47.88;;;;;;;7.34;100.00;101314.66;6187788;23;20029;-82
2022/10/25 03:27:48;;;;;;;52.28;48.83;;;;;;;7.49;100.00;101306.84;6186207;23;20024;-83
2022/10/25 03:30:16;;;;;;;52.25;48.72;;;;;;;7.58;100.00;101301.34;6186486;23;20033;-82
2022/10/25 03:32:43;;;;;;;53.50;49.60;;;;;;;7.58;100.00;101295.25;6186474;23;20017;-83
2022/10/25 03:35:10;;;;;;;57.05;52.63;;;;;;;7.49;100.00;101283.88;6186570;23;20021;-82
2022/10/25 03:37:42;;;;;;;47.20;43.70;;;;;;;7.47;100.00;101295.63;6186403;23;20115;-82
2022/10/25 03:40:12;;;;;;;55.03;50.97;;;;;;;7.54;100.00;101299.25;6186786;23;20443;-80
2022/10/25 03:42:41;;;;;;;47.05;43.75;;;;;;;7.56;100.00;101291.94;6187805;23;20021;-81
2022/10/25 03:45:08;;;;;;;47.75;44.45;;;;;;;7.51;100.00;101299.59;6187804;23;20032;-83
2022/10/25 03:47:35;;;;;;;49.25;45.22;;;;;;;7.58;100.00;101296.06;6187608;23;20017;-83
2022/10/25 03:50:02;;;;;;;47.35;43.85;;;;;;;7.53;100.00;101302.84;6187113;23;20099;-83
2022/10/25 03:52:32;;;;;;;45.33;41.65;;;;;;;7.61;100.00;101302.00;6187309;23;20020;-80
2022/10/25 03:55:16;;;;;;;46.03;42.33;;;;;;;7.54;100.00;101292.13;6187904;23;20091;-80
2022/10/25 03:57:49;;;;;;;50.15;46.70;;;;;;;7.54;100.00;101292.13;6187771;23;20103;-80
2022/10/25 04:00:17;;;;;;;50.65;46.70;;;;;;;7.52;100.00;101290.66;6187326;23;20319;-81
2022/10/25 04:02:45;;;;;;;54.15;50.20;;;;;;;7.23;100.00;101288.59;6186648;23;20095;-82
2022/10/25 04:05:13;;;;;;;62.58;57.88;;;;;;;7.25;100.00;101300.66;6186587;23;20025;-83
2022/10/25 04:07:41;;;;;;;61.28;55.75;;;;;;;7.11;100.00;101290.81;6186925;23;20324;-80
2022/10/25 04:10:09;;;;;;;50.15;46.20;;;;;;;7.27;100.00;101290.75;6188202;23;20039;-80
2022/10/25 04:12:37;;;;;;;50.97;47.55;;;;;;;7.40;100.00;101284.09;6187154;23;20087;-83
2022/10/25 04:15:06;;;;;;;40.22;37.20;;;;;;;6.93;100.00;101291.00;6185748;23;20024;-83
2022/10/25 04:17:32;;;;;;;43.17;39.80;;;;;;;7.31;100.00;101299.16;6186387;23;20393;-82
2022/10/25 04:19:59;;;;;;;44.17;40.72;;;;;;;7.42;100.00;101290.03;6186431;23;20445;-82
2022/10/25 04:22:33;;;;;;;42.38;38.67;;;;;;;7.35;100.00;101287.22;6186201;23;20029;-80
2022/10/25 04:25:00;;;;;;;43.00;39.60;;;;;;;7.28;100.00;101288.91;6186747;23;20346;-80
2022/10/25 04:27:28;;;;;;;43.88;39.47;;;;;;;7.33;100.00;101283.94;6183934;23;20328;-82
2022/10/25 04:29:57;;;;;;;44.53;40.78;;;;;;;7.47;100.00;101282.41;6186135;23;20033;-82
2022/10/25 04:32:24;;;;;;;42.83;39.58;;;;;;;7.49;100.00;101291.00;6185652;23;20075;-80
2022/10/25 04:34:51;;;;;;;44.50;40.88;;;;;;;7.52;100.00;101288.81;6114558;23;20100;-80
2022/10/25 04:37:19;;;;;;;43.72;40.45;;;;;;;7.49;100.00;101285.69;6186214;23;20029;-83
2022/10/25 04:39:45;;;;;;;40.28;36.78;;;;;;;7.12;100.00;101284.50;6187422;23;20025;-81
2022/10/25 04:42:12;;;;;;;43.10;40.03;;;;;;;7.31;100.00;101286.75;6186519;23;20319;-83
2022/10/25 04:44:40;;;;;;;44.30;40.60;;;;;;;7.37;100.00;101287.06;6186187;23;20465;-82
2022/10/25 04:47:08;;;;;;;45.53;42.25;;;;;;;7.52;100.00;101285.34;6185710;23;20083;-82
2022/10/25 04:49:35;;;;;;;43.78;40.17;;;;;;;7.42;100.00;101269.72;6187473;23;20035;-80
2022/10/25 04:52:04;;;;;;;43.83;40.45;;;;;;;7.42;100.00;101282.94;6184389;23;20438;-80
2022/10/25 04:54:31;;;;;;;44.10;40.60;;;;;;;7.32;100.00;101295.50;6186218;23;20020;-83
2022/10/25 04:56:58;;;;;;;45.58;41.83;;;;;;;7.58;100.00;101289.97;6185752;23;20032;-82
2022/10/25 04:59:25;;;;;;;45.10;40.83;;;;;;;7.59;100.00;101299.53;6185940;23;20623;-84
2022/10/25 05:01:58;;;;;;;48.30;42.53;;;;;;;7.48;100.00;101306.03;6184754;23;20044;-80
2022/10/25 05:04:26;;;;;;;52.00;44.47;;;;;;;7.58;100.00;101298.72;6185228;23;20450;-80
2022/10/25 05:06:56;;;;;;;46.75;41.97;;;;;;;7.61;100.00;101296.72;6186381;23;20332;-80
2022/10/25 05:09:23;;;;;;;50.55;46.35;;;;;;;7.88;100.00;101296.25;6185786;23;20025;-81
2022/10/25 05:11:50;;;;;;;51.88;46.47;;;;;;;8.02;100.00;101297.34;6185431;23;20393;-82
2022/10/25 05:14:18;;;;;;;49.80;45.58;;;;;;;8.09;100.00;101295.63;6187414;23;20351;-83
2022/10/25 05:16:50;;;;;;;49.60;44.92;;;;;;;8.06;100.00;101292.53;6185052;23;20087;-81
2022/10/25 05:19:27;;;;;;;127.88;76.35;;;;;;;7.92;100.00;101302.84;6185909;23;20021;-80
2022/10/25 05:21:53;;;;;;;55.38;48.60;;;;;;;8.01;100.00;101298.31;6185903;23;20025;-83
2022/10/25 05:24:20;;;;;;;61.92;52.05;;;;;;;7.98;100.00;101310.06;6186405;23;20095;-80
2022/10/25 05:27:05;;;;;;;63.92;52.55;;;;;;;8.07;100.00;101326.72;6185714;23;20488;-81
2022/10/25 05:29:34;;;;;;;51.45;46.20;;;;;;;8.31;100.00;101324.94;6187919;23;20025;-80
2022/10/25 05:32:02;;;;;;;46.63;41.63;;;;;;;8.32;100.00;101318.63;6187951;23;20021;-82
2022/10/25 05:34:31;;;;;;;47.92;43.58;;;;;;;8.55;100.00;101322.13;6187354;23;20032;-83
2022/10/25 05:36:59;;;;;;;47.85;43.03;;;;;;;8.76;100.00;101318.81;6187467;23;20029;-82
2022/10/25 05:39:27;;;;;;;49.28;44.60;;;;;;;8.76;100.00;101323.28;6188616;23;20025;-83
2022/10/25 05:41:54;;;;;;;51.15;47.05;;;;;;;9.07;100.00;101328.47;6188280;23;20028;-80
2022/10/25 05:44:20;;;;;;;48.28;44.05;;;;;;;9.24;100.00;101318.53;6188249;23;20434;-84
2022/10/25 05:46:50;;;;;;;47.15;43.45;;;;;;;9.47;100.00;101327.22;6188162;23;20021;-80
2022/10/25 05:49:17;;;;;;;51.58;46.83;;;;;;;9.53;100.00;101326.47;6188207;23;20021;-83
2022/10/25 05:51:45;;;;;;;55.13;49.65;;;;;;;9.69;100.00;101321.97;6188650;23;20063;-82
2022/10/25 05:54:14;;;;;;;56.00;50.33;;;;;;;9.74;100.00;101319.56;6188001;23;20024;-84
2022/10/25 05:56:42;;;;;;;53.90;48.90;;;;;;;10.02;100.00;101323.19;6187707;23;20088;-84
2022/10/25 05:59:14;;;;;;;51.25;47.00;;;;;;;10.17;100.00;101323.16;6186994;23;20075;-81
2022/10/25 06:01:42;;;;;;;48.17;44.37;;;;;;;10.34;100.00;101329.03;6186718;23;20025;-81
2022/10/25 06:04:10;;;;;;;50.05;46.22;;;;;;;10.70;100.00;101325.50;6188067;23;20460;-79
2022/10/25 06:06:39;;;;;;;49.03;45.00;;;;;;;10.79;100.00;101327.00;6187255;23;20391;-79
2022/10/25 06:09:11;;;;;;;46.22;42.78;;;;;;;10.75;100.00;101331.88;6187835;23;20084;-82
2022/10/25 06:11:39;;;;;;;46.40;43.03;;;;;;;11.08;100.00;101326.00;6186357;23;20021;-79
2022/10/25 06:14:06;;;;;;;45.85;42.55;;;;;;;11.19;100.00;101335.25;6187030;23;20088;-82
2022/10/25 06:16:33;;;;;;;51.10;47.53;;;;;;;11.51;100.00;101341.78;6187745;23;20315;-83
2022/10/25 06:19:01;;;;;;;49.05;45.17;;;;;;;11.66;100.00;101336.34;6186818;23;20025;-80
2022/10/25 06:21:29;;;;;;;46.20;43.40;;;;;;;11.41;100.00;101344.00;6187538;23;20446;-82
2022/10/25 06:23:58;;;;;;;46.20;43.28;;;;;;;11.79;100.00;101343.56;6187650;23;20115;-82
2022/10/25 06:26:30;;;;;;;44.75;41.47;;;;;;;12.23;100.00;101343.13;6187296;23;20095;-83
2022/10/25 06:29:04;;;;;;;44.23;40.73;;;;;;;12.11;100.00;101337.56;6187185;23;20025;-82
2022/10/25 06:31:33;;;;;;;69.25;61.65;;;;;;;12.41;100.00;101344.41;6187519;23;20350;-81
2022/10/25 06:34:02;;;;;;;67.90;60.33;;;;;;;12.77;100.00;101349.34;6187487;23;20114;-79
2022/10/25 06:36:30;;;;;;;95.82;69.30;;;;;;;12.68;100.00;101337.22;6187210;23;20041;-82
2022/10/25 06:38:58;;;;;;;52.70;47.75;;;;;;;12.80;100.00;101341.75;6186402;23;20462;-84
2022/10/25 06:41:30;;;;;;;221.18;115.57;;;;;;;13.18;100.00;101332.28;6186808;23;20032;-84
2022/10/25 06:43:58;;;;;;;65.95;54.17;;;;;;;13.19;100.00;101332.09;6186549;23;20405;-83
2022/10/25 06:46:28;;;;;;;48.63;44.83;;;;;;;13.34;100.00;101323.03;6187253;23;20454;-85
2022/10/25 06:48:57;;;;;;;106.82;68.55;;;;;;;13.77;100.00;101314.47;6186831;23;20043;-84
2022/10/25 06:51:25;;;;;;;47.80;42.22;;;;;;;13.92;100.00;101315.84;6187165;23;20508;-81
2022/10/25 06:53:54;;;;;;;47.03;42.72;;;;;;;14.35;100.00;101309.81;6186944;23;20021;-81
2022/10/25 06:56:24;;;;;;;61.10;53.47;;;;;;;14.88;100.00;101319.28;6186703;23;20458;-80
2022/10/25 06:58:52;;;;;;;42.85;39.08;;;;;;;14.75;100.00;101322.91;6187758;23;20087;-84
2022/10/25 07:01:21;;;;;;;41.97;39.20;;;;;;;15.07;100.00;101312.97;6185650;23;20025;-83
2022/10/25 07:03:49;;;;;;;41.03;38.30;;;;;;;15.32;100.00;101317.44;6185257;23;20438;-83
2022/10/25 07:06:17;;;;;;;41.47;38.78;;;;;;;15.95;100.00;101318.97;6186524;23;20021;-81
2022/10/25 07:08:46;;;;;;;39.85;37.35;;;;;;;15.62;100.00;101312.16;6186629;23;20083;-83
2022/10/25 07:11:14;;;;;;;41.88;39.28;;;;;;;16.51;100.00;101300.81;6186594;23;20024;-85
2022/10/25 07:13:47;;;;;;;42.67;39.58;;;;;;;16.98;100.00;101303.56;6186807;23;20071;-81
2022/10/25 07:16:21;;;;;;;49.60;44.92;;;;;;;16.83;100.00;101307.53;6187178;23;20017;-81
2022/10/25 07:18:49;;;;;;;46.47;42.83;;;;;;;17.47;100.00;101309.44;6187101;23;20029;-82
2022/10/25 07:21:20;;;;;;;48.80;45.10;;;;;;;18.16;100.00;101309.47;6187380;23;20100;-79
2022/10/25 07:23:51;;;;;;;69.72;56.95;;;;;;;18.33;100.00;101301.41;6186363;23;20032;-85
2022/10/25 07:26:22;;;;;;;66.95;59.33;;;;;;;18.30;100.00;101305.38;6186683;23;20449;-83
2022/10/25 07:28:51;;;;;;;57.55;51.88;;;;;;;18.85;100.00;101302.00;6186786;23;20021;-80
2022/10/25 07:31:22;;;;;;;66.03;58.85;;;;;;;17.99;100.00;101298.66;6187054;23;20103;-80
2022/10/25 07:33:50;;;;;;;59.33;53.70;;;;;;;17.87;100.00;101297.91;6185900;23;20017;-81
2022/10/25 07:36:17;;;;;;;50.85;46.53;;;;;;;17.75;100.00;101301.41;6186272;23;20248;-83
2022/10/25 07:38:44;;;;;;;50.15;45.28;;;;;;;17.79;100.00;101301.78;6186585;23;20438;-84
2022/10/25 07:41:13;;;;;;;43.65;40.50;;;;;;;17.83;100.00;101298.38;6186934;23;20461;-80
2022/10/25 07:43:40;;;;;;;46.65;43.15;;;;;;;18.05;100.00;101289.63;6187263;23;20390;-80
2022/10/25 07:46:07;;;;;;;41.10;38.70;;;;;;;18.61;100.00;101284.38;6186795;23;20091;-84
2022/10/25 07:48:36;;;;;;;46.38;42.47;;;;;;;19.37;100.00;101273.88;6186266;23;20024;-82
2022/10/25 07:51:06;;;;;;;47.40;43.55;;;;;;;19.26;100.00;101275.63;6185588;23;20442;-83
2022/10/25 07:53:34;;;;;;;43.80;40.33;;;;;;;19.60;100.00;101278.19;6185891;23;20497;-82
2022/10/25 07:56:01;;;;;;;42.72;39.63;;;;;;;19.82;100.00;101270.94;6184775;23;20099;-83
2022/10/25 07:58:28;;;;;;;46.05;41.92;;;;;;;19.33;100.00;101267.34;6186907;23;20028;-80
2022/10/25 08:01:00;;;;;;;50.67;45.75;;;;;;;19.49;100.00;101263.81;6185760;23;20029;-80
2022/10/25 08:03:29;;;;;;;52.22;47.03;;;;;;;20.00;100.00;101258.97;6186518;23;20025;-83
2022/10/25 08:05:57;;;;;;;53.70;47.70;;;;;;;20.25;100.00;101250.28;6186814;23;20029;-83
2022/10/25 08:08:30;;;;;;;45.03;40.42;;;;;;;20.30;100.00;101244.94;6186075;23;20025;-83
2022/10/25 08:11:07;;;;;;;46.05;42.13;;;;;;;20.84;100.00;101243.16;6186004;23;20454;-82
2022/10/25 08:13:35;;;;;;;45.95;41.90;;;;;;;21.30;100.00;101244.16;6186428;23;20059;-84
2022/10/25 08:16:02;;;;;;;52.92;47.95;;;;;;;21.17;100.00;101241.94;6184817;23;20100;-83
2022/10/25 08:18:29;;;;;;;48.40;44.15;;;;;;;21.30;100.00;101246.03;6185247;23;20025;-83
2022/10/25 08:20:57;;;;;;;44.97;41.33;;;;;;;21.51;100.00;101242.34;6186111;23;20021;-83
2022/10/25 08:23:25;;;;;;;47.47;43.22;;;;;;;21.92;100.00;101234.34;6186013;23;20055;-80
2022/10/25 08:25:52;;;;;;;43.85;40.80;;;;;;;21.88;100.00;101223.25;6184792;23;20029;-83
2022/10/25 08:28:19;;;;;;;44.28;40.42;;;;;;;22.28;100.00;101228.97;6186357;23;20025;-80
2022/10/25 08:30:49;;;;;;;43.80;40.70;;;;;;;22.54;100.00;101221.59;6186084;23;20025;-82
2022/10/25 08:33:17;;;;;;;44.05;41.22;;;;;;;23.28;100.00;101223.56;6186703;23;20401;-81
2022/10/25 08:35:44;;;;;;;44.20;40.55;;;;;;;23.63;100.00;101219.03;6186508;23;20091;-80
2022/10/25 08:38:12;;;;;;;44.25;41.03;;;;;;;24.10;100.00;101220.31;6186595;23;20265;-80
2022/10/25 08:40:49;;;;;;;44.58;41.15;;;;;;;24.62;85.45;101218.75;6186399;23;20021;-82
2022/10/25 08:43:29;;;;;;;47.00;43.13;;;;;;;24.50;90.77;101217.53;6186312;23;20087;-83
2022/10/25 08:45:59;;;;;;;43.30;40.42;;;;;;;23.88;92.29;101209.13;6186414;23;20386;-81
2022/10/25 08:48:35;;;;;;;43.42;40.08;;;;;;;24.29;93.23;101214.19;6186342;23;20028;-81
2022/10/25 08:51:05;;;;;;;45.45;41.88;;;;;;;24.89;90.05;101206.50;6185987;23;20087;-81
2022/10/25 08:53:40;;;;;;;45.05;41.75;;;;;;;24.63;76.24;101209.53;6186669;23;20029;-81
2022/10/25 08:56:13;;;;;;;44.90;42.20;;;;;;;23.26;61.41;101205.94;6184955;23;20029;-83
2022/10/25 08:58:46;;;;;;;47.47;44.47;;;;;;;22.96;83.84;101212.31;6187313;23;20025;-80
2022/10/25 09:01:18;;;;;;;50.22;46.88;;;;;;;22.24;99.69;101217.03;6184809;23;20059;-83
2022/10/25 09:03:45;;;;;;;48.97;45.92;;;;;;;22.88;70.50;101210.16;6186292;23;20075;-81
2022/10/25 09:06:19;;;;;;;50.40;46.90;;;;;;;22.30;99.67;101210.53;6187222;23;20029;-80
2022/10/25 09:09:11;;;;;;;49.72;46.50;;;;;;;21.31;88.25;101207.16;6185690;23;20054;-83
2022/10/25 09:11:49;;;;;;;;;;;;;;;20.85;87.35;101205.09;6188067;23;20035;-80
2022/10/25 09:14:27;;;;;;;66.38;61.50;;;;;;;21.45;78.64;101208.28;6185778;23;19916;-83
2022/10/25 09:17:03;;;;;;;61.28;56.72;;;;;;;20.87;94.10;101208.34;6185009;23;20017;-82
2022/10/25 09:19:34;;;;;;;61.25;56.53;;;;;;;22.29;100.00;101207.03;6185712;23;20031;-81
2022/10/25 09:22:04;;;;;;;64.25;59.13;;;;;;;21.60;89.78;101205.63;6185294;23;20099;-82
2022/10/25 09:24:44;;;;;;;56.70;52.80;;;;;;;22.36;97.76;101199.47;6186194;23;20021;-80
2022/10/25 09:27:15;;;;;;;63.92;59.53;;;;;;;21.04;88.00;101203.56;6190076;23;20095;-80
2022/10/25 09:29:46;;;;;;;54.38;50.35;;;;;;;22.20;100.00;101207.88;6186946;23;20033;-80
2022/10/25 09:32:21;;;;;;;67.93;62.60;;;;;;;20.99;87.53;101216.22;6187486;23;20039;-83
2022/10/25 09:34:50;;;;;;;75.78;70.03;;;;;;;21.50;100.00;101219.94;6185016;23;20446;-82
2022/10/25 09:37:20;;;;;;;61.38;56.67;;;;;;;20.61;100.00;101218.19;6184459;23;20491;-82
2022/10/25 09:39:53;;;;;;;63.95;58.65;;;;;;;21.01;97.32;101214.88;6184822;23;20025;-82
2022/10/25 09:42:25;;;;;;;59.45;54.95;;;;;;;22.00;100.00;101212.19;6186344;23;20025;-81
2022/10/25 09:44:56;;;;;;;66.20;60.90;;;;;;;21.26;84.10;101208.75;6187371;23;20095;-82
2022/10/25 09:47:35;;;;;;;62.13;57.47;;;;;;;22.00;94.22;101197.81;6190832;23;20450;-80
2022/10/25 09:50:07;;;;;;;69.95;64.65;;;;;;;21.66;100.00;101198.34;6194248;23;20065;-82
2022/10/25 09:55:39;;;;;;;65.47;60.55;;;;;;;21.25;100.00;101196.34;6100642;23;20027;-91
2022/10/25 09:58:17;;;;;;;56.55;52.20;;;;;;;21.83;88.92;101188.09;5947320;23;20034;-91
2022/10/25 10:00:49;;;;;;;65.50;60.65;;;;;;;22.29;94.76;101190.81;6100467;23;20023;-92
2022/10/25 10:03:20;;;;;;;72.05;66.35;;;;;;;22.31;96.09;101185.94;6099082;23;20025;-90
2022/10/25 10:05:57;;;;;;;73.73;67.93;;;;;;;23.02;91.33;101184.94;6098393;23;20086;-90
2022/10/25 10:08:26;;;;;;;70.43;64.63;;;;;;;21.75;91.11;101182.41;6098570;23;20074;-91
2022/10/25 10:10:57;;;;;;;87.63;80.18;;;;;;;22.52;99.40;101178.59;6098915;23;20461;-91
2022/10/25 10:13:37;;;;;;;53.65;50.05;;;;;;;21.84;74.24;101168.06;6100015;23;20044;-91
2022/10/25 10:16:15;;;;;;;49.35;46.10;;;;;;;22.36;87.88;101166.16;6101022;23;20028;-91
2022/10/25 10:18:46;;;;;;;50.28;46.80;;;;;;;22.90;86.59;101170.06;6101194;23;20014;-91
2022/10/25 10:21:18;;;;;;;50.95;47.60;;;;;;;23.05;78.59;101172.72;6100892;23;20353;-91
2022/10/25 10:26:47;;;;;;;52.70;49.60;;;;;;;23.86;93.71;101159.75;6099710;23;20077;-91
2022/10/25 10:29:30;;;;;;;;;;;;;;;24.82;76.65;101155.25;6101145;23;20476;-92
2022/10/25 10:32:08;;;;;;;50.58;47.38;;;;;;;23.38;91.14;101171.19;6099231;23;19929;-91
2022/10/25 10:34:43;;;;;;;51.10;47.67;;;;;;;23.65;73.93;101154.47;6100199;23;20364;-91
2022/10/25 10:37:17;;;;;;;49.33;45.92;;;;;;;24.22;79.36;101142.06;6099840;23;20081;-92
2022/10/25 10:39:55;;;;;;;52.13;48.53;;;;;;;24.39;78.19;101140.81;6098513;23;20030;-91
2022/10/25 10:42:33;;;;;;;53.22;50.42;;;;;;;21.86;70.78;101141.59;6098719;23;20078;-91
2022/10/25 10:45:19;;;;;;;65.63;60.17;;;;;;;22.89;93.65;101149.50;6099671;23;20022;-91
2022/10/25 10:47:56;;;;;;;69.10;63.67;;;;;;;22.26;78.22;101145.34;6096274;23;20022;-91
2022/10/25 10:50:29;;;;;;;71.75;66.05;;;;;;;22.93;83.20;101145.13;6100352;23;20081;-91
2022/10/25 10:53:02;;;;;;;63.85;58.45;;;;;;;23.42;95.63;101144.34;6098842;23;20018;-91
2022/10/25 10:55:32;;;;;;;75.05;69.13;;;;;;;22.29;71.69;101144.81;6062242;23;20022;-92
2022/10/25 10:58:04;;;;;;;67.40;61.42;;;;;;;23.37;97.36;101136.25;6100507;23;20018;-91
2022/10/25 11:00:51;;;;;;;60.70;55.92;;;;;;;23.30;74.16;101125.75;6100691;23;20019;-92
2022/10/25 11:03:44;;;;;;;63.40;57.65;;;;;;;24.59;80.88;101121.59;6100062;23;20022;-91
2022/10/25 11:06:13;;;;;;;63.22;57.60;;;;;;;25.09;71.46;101123.94;6100349;23;20338;-91
2022/10/25 11:08:41;;;;;;;68.40;62.88;;;;;;;24.60;78.61;101131.38;6099875;23;20077;-92
2022/10/25 11:14:02;;;;;;;60.95;56.13;;;;;;;23.71;74.30;101131.69;6099814;23;20030;-91
2022/10/25 11:16:59;;;;;;;66.35;60.97;;;;;;;24.80;66.95;101133.00;6100388;23;20472;-91
2022/10/25 11:19:52;;;;;;;78.13;71.55;;;;;;;24.26;81.15;101130.63;6066777;23;20440;-91
2022/10/25 11:22:40;;;;;;;66.13;60.70;;;;;;;24.18;79.27;101119.31;6099774;23;20026;-91
2022/10/25 11:25:31;;;;;;;74.80;67.80;;;;;;;24.27;65.84;101115.94;6101333;23;20019;-91
2022/10/25 11:28:14;;;;;;;71.85;64.97;;;;;;;23.72;77.87;101113.50;6100923;23;20026;-91
2022/10/25 11:30:53;;;;;;;63.33;57.83;;;;;;;24.17;57.76;101114.16;6100760;23;20094;-91
2022/10/25 11:33:40;;;;;;;74.82;68.63;;;;;;;24.83;71.38;101113.41;6100367;23;20026;-91